createdAt,value
2023-03-12T00:00:08.803Z,0.50
2023-03-12T00:02:35.714Z,0.50
2023-03-12T00:05:02.917Z,0.77
2023-03-12T00:07:29.846Z,0.80
2023-03-12T00:09:56.684Z,0.30
2023-03-12T00:12:23.575Z,0.93
2023-03-12T00:14:50.373Z,0.30
2023-03-12T00:17:17.281Z,0.50
2023-03-12T00:19:45.345Z,0.40
2023-03-12T00:22:12.291Z,0.53
2023-03-12T00:24:39.381Z,0.30
2023-03-12T00:27:07.349Z,0.40
2023-03-12T00:29:34.243Z,0.30
2023-03-12T00:32:01.044Z,0.30
2023-03-12T00:34:28.197Z,0.40
2023-03-12T00:36:55.200Z,0.30
2023-03-12T00:39:22.039Z,0.80
2023-03-12T00:41:48.873Z,0.90
2023-03-12T00:44:15.800Z,0.63
2023-03-12T00:46:42.715Z,0.73
2023-03-12T00:49:10.268Z,0.43
2023-03-12T00:51:37.521Z,0.40
2023-03-12T00:54:04.902Z,0.40
2023-03-12T00:56:32.161Z,0.50
2023-03-12T00:58:59.027Z,0.40
2023-03-12T01:01:27.659Z,0.30
2023-03-12T01:03:55.782Z,0.30
2023-03-12T01:06:22.776Z,0.47
2023-03-12T01:08:49.647Z,0.30
2023-03-12T01:11:18.121Z,0.80
2023-03-12T01:13:45.187Z,0.77
2023-03-12T01:16:12.284Z,0.30
2023-03-12T01:18:39.725Z,0.80
2023-03-12T01:21:06.616Z,0.50
2023-03-12T01:23:33.905Z,0.43
2023-03-12T01:26:00.865Z,0.30
2023-03-12T01:28:27.884Z,0.40
2023-03-12T01:30:54.726Z,0.30
2023-03-12T01:33:23.035Z,0.40
2023-03-12T01:35:50.572Z,0.33
2023-03-12T01:38:19.156Z,0.40
2023-03-12T01:40:46.096Z,0.50
2023-03-12T01:43:25.026Z,0.43
2023-03-12T01:46:22.989Z,0.40
2023-03-12T01:49:04.931Z,0.30
2023-03-12T01:51:54.978Z,0.47
2023-03-12T01:54:44.257Z,0.33
2023-03-12T01:57:15.744Z,0.40
2023-03-12T01:59:50.097Z,0.43
2023-03-12T02:02:18.677Z,0.50
2023-03-12T02:04:47.738Z,0.30
2023-03-12T02:07:17.341Z,0.40
2023-03-12T02:09:48.155Z,0.70
2023-03-12T02:12:16.322Z,0.60
2023-03-12T02:14:43.816Z,0.50
2023-03-12T02:17:11.358Z,0.70
2023-03-12T02:20:22.622Z,0.40
2023-03-12T02:23:03.020Z,0.83
2023-03-12T02:25:48.339Z,0.40
2023-03-12T02:28:18.678Z,0.30
2023-03-12T02:30:49.349Z,0.77
2023-03-12T02:33:16.544Z,0.30
2023-03-12T02:35:45.535Z,0.60
2023-03-12T02:38:37.130Z,0.47
2023-03-12T02:41:24.354Z,0.63
2023-03-12T02:44:00.203Z,0.70
2023-03-12T02:46:27.934Z,0.50
2023-03-12T02:48:56.408Z,0.60
2023-03-12T02:51:23.375Z,0.53
2023-03-12T02:53:54.804Z,0.53
2023-03-12T02:56:23.559Z,0.93
2023-03-12T02:58:50.544Z,0.30
2023-03-12T03:01:18.388Z,0.57
2023-03-12T03:03:45.582Z,0.50
2023-03-12T03:06:13.224Z,0.60
2023-03-12T03:08:40.593Z,0.50
2023-03-12T03:11:07.583Z,0.50
2023-03-12T03:13:34.615Z,0.30
2023-03-12T03:16:02.179Z,0.60
2023-03-12T03:18:30.056Z,1.10
2023-03-12T03:21:02.930Z,0.60
2023-03-12T03:23:30.342Z,0.47
2023-03-12T03:25:57.603Z,0.50
2023-03-12T03:28:26.596Z,0.40
2023-03-12T03:31:00.854Z,0.60
2023-03-12T03:33:29.152Z,0.67
2023-03-12T03:35:59.593Z,0.77
2023-03-12T03:38:28.399Z,0.93
2023-03-12T03:40:55.582Z,0.60
2023-03-12T03:43:22.871Z,0.77
2023-03-12T03:45:56.584Z,0.50
2023-03-12T03:48:23.363Z,0.30
2023-03-12T03:50:50.196Z,0.43
2023-03-12T03:53:19.457Z,0.40
2023-03-12T03:55:46.707Z,0.60
2023-03-12T03:58:13.990Z,0.70
2023-03-12T04:00:40.867Z,1.17
2023-03-12T04:03:07.877Z,0.40
2023-03-12T04:05:34.771Z,0.53
2023-03-12T04:08:03.277Z,0.80
2023-03-12T04:10:30.671Z,0.73
2023-03-12T04:12:57.780Z,0.50
2023-03-12T04:15:24.767Z,0.70
2023-03-12T04:17:51.796Z,0.80
2023-03-12T04:20:18.802Z,1.10
2023-03-12T04:22:45.631Z,0.33
2023-03-12T04:25:12.460Z,0.50
2023-03-12T04:27:39.336Z,0.73
2023-03-12T04:30:06.755Z,0.47
2023-03-12T04:32:33.731Z,0.50
2023-03-12T04:35:00.535Z,0.67
2023-03-12T04:37:27.472Z,0.57
2023-03-12T04:39:54.365Z,0.60
2023-03-12T04:42:21.219Z,0.37
2023-03-12T04:44:50.330Z,0.40
2023-03-12T04:47:17.210Z,0.50
2023-03-12T04:49:44.014Z,0.40
2023-03-12T04:52:10.848Z,1.00
2023-03-12T04:54:37.635Z,1.17
2023-03-12T04:57:04.450Z,1.07
2023-03-12T04:59:31.426Z,1.23
2023-03-12T05:01:58.260Z,1.53
2023-03-12T05:04:25.161Z,0.53
2023-03-12T05:06:51.999Z,0.97
2023-03-12T05:09:18.871Z,0.90
2023-03-12T05:11:45.663Z,0.40
2023-03-12T05:14:12.528Z,0.80
2023-03-12T05:16:39.386Z,0.70
2023-03-12T05:19:07.026Z,1.00
2023-03-12T05:21:33.933Z,0.43
2023-03-12T05:24:00.767Z,0.50
2023-03-12T05:26:33.698Z,0.43
2023-03-12T05:29:02.173Z,0.83
2023-03-12T05:31:33.094Z,0.43
2023-03-12T05:34:00.622Z,0.57
2023-03-12T05:36:27.568Z,0.70
2023-03-12T05:38:54.465Z,0.67
2023-03-12T05:41:24.557Z,1.07
2023-03-12T05:43:53.341Z,0.57
2023-03-12T05:46:21.023Z,0.60
2023-03-12T05:48:48.235Z,0.63
2023-03-12T05:51:15.253Z,0.70
2023-03-12T05:53:42.202Z,0.60
2023-03-12T05:56:13.502Z,1.07
2023-03-12T05:58:40.818Z,0.80
2023-03-12T06:01:23.698Z,0.73
2023-03-12T06:03:50.872Z,0.70
2023-03-12T06:06:18.410Z,0.97
2023-03-12T06:08:45.438Z,0.50
2023-03-12T06:11:13.320Z,0.60
2023-03-12T06:13:40.231Z,0.93
2023-03-12T06:16:27.051Z,0.40
2023-03-12T06:18:56.448Z,0.67
2023-03-12T06:21:25.769Z,0.60
2023-03-12T06:23:53.082Z,0.70
2023-03-12T06:26:22.274Z,0.50
2023-03-12T06:28:51.185Z,0.50
2023-03-12T06:31:19.045Z,1.10
2023-03-12T06:33:46.072Z,0.57
2023-03-12T06:36:13.661Z,0.97
2023-03-12T06:38:41.242Z,0.63
2023-03-12T06:41:14.346Z,0.30
2023-03-12T06:43:43.777Z,0.80
2023-03-12T06:46:14.764Z,0.57
2023-03-12T06:48:41.789Z,1.20
2023-03-12T06:51:10.602Z,0.70
2023-03-12T06:53:40.324Z,0.80
2023-03-12T06:56:09.054Z,1.17
2023-03-12T06:58:35.879Z,0.70
2023-03-12T07:01:02.967Z,0.70
2023-03-12T07:03:29.761Z,0.63
2023-03-12T07:05:57.867Z,0.73
2023-03-12T07:08:26.225Z,0.50
2023-03-12T07:10:53.058Z,0.40
2023-03-12T07:13:19.895Z,1.23
2023-03-12T07:15:46.932Z,0.87
2023-03-12T07:18:14.332Z,1.00
2023-03-12T07:20:43.610Z,0.73
2023-03-12T07:23:11.398Z,0.80
2023-03-12T07:25:40.318Z,0.70
2023-03-12T07:28:08.343Z,1.27
2023-03-12T07:30:36.062Z,0.77
2023-03-12T07:33:09.149Z,0.90
2023-03-12T07:35:38.690Z,0.73
2023-03-12T07:38:06.862Z,1.10
2023-03-12T07:40:34.549Z,1.13
2023-03-12T07:43:02.027Z,0.70
2023-03-12T07:45:29.202Z,0.57
2023-03-12T07:47:56.114Z,1.53
2023-03-12T07:50:24.310Z,0.77
2023-03-12T07:52:51.550Z,0.77
2023-03-12T07:55:18.639Z,1.37
2023-03-12T07:57:45.694Z,1.00
2023-03-12T08:00:13.577Z,1.17
2023-03-12T08:02:40.882Z,0.47
2023-03-12T08:05:08.020Z,1.83
2023-03-12T08:07:35.794Z,0.40
2023-03-12T08:10:05.851Z,1.07
2023-03-12T08:12:32.808Z,1.23
2023-03-12T08:14:59.645Z,1.60
2023-03-12T08:17:26.705Z,0.87
2023-03-12T08:19:54.075Z,1.00
2023-03-12T08:22:20.994Z,0.90
2023-03-12T08:24:48.177Z,0.63
2023-03-12T08:27:15.536Z,1.23
2023-03-12T08:29:42.674Z,0.50
2023-03-12T08:32:14.177Z,0.77
2023-03-12T08:34:41.348Z,0.57
2023-03-12T08:37:08.233Z,1.10
2023-03-12T08:39:35.103Z,0.93
2023-03-12T08:42:02.069Z,0.93
2023-03-12T08:44:31.976Z,0.50
2023-03-12T08:46:58.827Z,0.57
2023-03-12T08:49:25.912Z,0.83
2023-03-12T08:51:53.120Z,0.67
2023-03-12T08:54:20.667Z,0.50
2023-03-12T08:56:52.296Z,0.70
2023-03-12T08:59:20.772Z,0.47
2023-03-12T09:01:48.222Z,0.97
2023-03-12T09:04:15.653Z,0.60
2023-03-12T09:06:42.781Z,1.13
2023-03-12T09:09:09.708Z,0.47
2023-03-12T09:11:39.627Z,0.40
2023-03-12T09:16:53.740Z,1.10
2023-03-12T09:19:21.155Z,0.93
2023-03-12T09:21:48.063Z,1.07
2023-03-12T09:24:14.868Z,1.00
2023-03-12T09:26:41.759Z,0.70
2023-03-12T09:29:08.545Z,0.73
2023-03-12T09:31:36.580Z,0.80
2023-03-12T09:34:04.827Z,0.70
2023-03-12T09:36:32.298Z,0.80
2023-03-12T09:38:59.222Z,0.80
2023-03-12T09:41:32.181Z,0.60
2023-03-12T09:44:14.403Z,0.90
2023-03-12T09:46:51.888Z,0.83
2023-03-12T09:49:43.291Z,1.10
2023-03-12T09:52:30.826Z,0.40
2023-03-12T09:55:19.839Z,0.60
2023-03-12T09:57:48.371Z,0.50
2023-03-12T10:00:24.620Z,0.60
2023-03-12T10:03:09.264Z,0.53
2023-03-12T10:06:21.258Z,0.50
2023-03-12T10:09:02.828Z,1.00
2023-03-12T10:11:54.724Z,0.40
2023-03-12T10:14:52.620Z,0.70
2023-03-12T10:17:50.165Z,0.80
2023-03-12T10:20:16.989Z,0.80
2023-03-12T10:23:09.468Z,0.73
2023-03-12T10:25:55.820Z,0.53
2023-03-12T10:28:36.637Z,1.40
2023-03-12T10:31:15.544Z,0.93
2023-03-12T10:33:57.612Z,0.70
2023-03-12T10:36:46.015Z,0.77
2023-03-12T10:39:19.632Z,0.57
2023-03-12T10:41:48.535Z,0.60
2023-03-12T10:44:21.424Z,0.73
2023-03-12T10:46:56.082Z,0.57
2023-03-12T10:49:23.927Z,0.87
2023-03-12T10:52:00.514Z,0.50
2023-03-12T10:54:40.658Z,0.37
2023-03-12T10:57:08.717Z,0.67
2023-03-12T10:59:38.907Z,0.60
2023-03-12T11:02:29.060Z,0.67
2023-03-12T11:04:56.644Z,0.60
2023-03-12T11:07:30.400Z,0.80
2023-03-12T11:10:06.375Z,0.60
2023-03-12T11:12:36.295Z,0.83
2023-03-12T11:15:23.661Z,0.53
2023-03-12T11:17:51.229Z,0.70
2023-03-12T11:20:29.850Z,1.33
2023-03-12T11:22:57.045Z,0.60
2023-03-12T11:25:29.033Z,0.73
2023-03-12T11:28:00.769Z,0.40
2023-03-12T11:30:36.785Z,0.90
2023-03-12T11:33:04.277Z,0.90
2023-03-12T11:36:06.064Z,0.30
2023-03-12T11:38:35.837Z,0.50
2023-03-12T11:41:11.655Z,0.50
2023-03-12T11:43:50.411Z,0.40
2023-03-12T11:46:20.053Z,0.60
2023-03-12T11:49:04.730Z,0.40
2023-03-12T11:51:43.432Z,0.33
2023-03-12T11:54:57.795Z,0.70
2023-03-12T11:57:39.658Z,0.67
2023-03-12T12:00:17.386Z,0.57
2023-03-12T12:02:57.446Z,0.97
2023-03-12T12:05:44.733Z,0.70
2023-03-12T12:08:14.303Z,0.60
2023-03-12T12:10:52.257Z,0.63
2023-03-12T12:13:25.149Z,0.33
2023-03-12T12:15:52.001Z,0.30
2023-03-12T12:18:43.279Z,0.57
2023-03-12T12:21:28.006Z,0.60
2023-03-12T12:24:01.462Z,0.73
2023-03-12T12:26:36.821Z,0.50
2023-03-12T12:29:34.927Z,0.40
2023-03-12T12:32:05.865Z,0.40
2023-03-12T12:34:41.946Z,0.40
2023-03-12T12:37:30.317Z,0.30
2023-03-12T12:40:14.076Z,0.30
2023-03-12T12:42:51.453Z,0.30
2023-03-12T12:45:19.799Z,0.40
2023-03-12T12:47:53.341Z,0.60
2023-03-12T12:50:29.268Z,0.83
2023-03-12T12:53:13.424Z,0.27
2023-03-12T12:55:49.785Z,0.20
2023-03-12T12:58:52.502Z,0.40
2023-03-12T13:01:19.863Z,0.50
2023-03-12T13:03:47.628Z,0.53
2023-03-12T13:06:14.621Z,0.40
2023-03-12T13:08:44.483Z,0.30
2023-03-12T13:11:20.480Z,0.80
2023-03-12T13:14:12.525Z,0.40
2023-03-12T13:16:44.856Z,0.40
2023-03-12T13:19:14.792Z,0.47
2023-03-12T13:22:06.574Z,0.37
2023-03-12T13:24:51.761Z,0.20
2023-03-12T13:27:28.665Z,0.33
2023-03-12T13:29:58.533Z,0.57
2023-03-12T13:32:39.248Z,0.30
2023-03-12T13:35:17.980Z,0.10
2023-03-12T13:38:01.992Z,0.10
2023-03-12T13:40:31.858Z,0.20
2023-03-12T13:43:40.114Z,0.30
2023-03-12T13:46:21.016Z,0.20
2023-03-12T13:48:49.263Z,0.20
2023-03-12T13:51:23.198Z,0.32
2023-03-12T13:54:00.253Z,0.93
2023-03-12T13:56:33.518Z,0.50
2023-03-12T13:59:06.960Z,0.33
2023-03-12T14:01:41.395Z,0.40
2023-03-12T14:04:14.544Z,0.40
2023-03-12T14:07:31.409Z,0.47
2023-03-12T14:10:00.948Z,0.40
2023-03-12T14:12:43.366Z,0.30
2023-03-12T14:15:18.952Z,0.70
2023-03-12T14:17:46.530Z,0.63
2023-03-12T14:20:16.774Z,0.70
2023-03-12T14:22:46.675Z,0.30
2023-03-12T14:25:52.285Z,0.30
2023-03-12T14:28:24.164Z,0.40
2023-03-12T14:30:58.500Z,0.40
2023-03-12T14:33:27.894Z,0.87
2023-03-12T14:36:03.560Z,0.43
2023-03-12T14:38:39.061Z,0.30
2023-03-12T14:41:13.592Z,0.73
2023-03-12T14:43:43.448Z,0.77
2023-03-12T14:46:24.539Z,0.37
2023-03-12T14:48:54.937Z,0.60
2023-03-12T14:51:24.778Z,0.60
2023-03-12T14:53:52.663Z,0.43
2023-03-12T14:56:33.222Z,0.20
2023-03-12T14:59:21.801Z,0.67
2023-03-12T15:01:49.057Z,0.40
2023-03-12T15:04:22.343Z,0.40
2023-03-12T15:06:54.047Z,0.23
2023-03-12T15:09:26.345Z,0.70
2023-03-12T15:11:57.293Z,0.57
2023-03-12T15:14:26.845Z,0.70
2023-03-12T15:16:54.595Z,0.67
2023-03-12T15:19:28.025Z,0.50
2023-03-12T15:21:55.247Z,0.53
2023-03-12T15:24:22.420Z,0.30
2023-03-12T15:26:49.436Z,0.77
2023-03-12T15:29:26.532Z,0.63
2023-03-12T15:32:00.791Z,0.60
2023-03-12T15:34:37.124Z,0.60
2023-03-12T15:37:32.581Z,0.60
2023-03-12T15:40:02.041Z,0.20
2023-03-12T15:42:30.046Z,1.23
2023-03-12T15:45:02.856Z,0.50
2023-03-12T15:47:32.762Z,0.60
2023-03-12T15:50:26.735Z,0.60
2023-03-12T15:53:06.659Z,0.40
2023-03-12T15:55:35.969Z,0.40
2023-03-12T15:58:03.718Z,0.20
2023-03-12T16:00:44.402Z,0.43
2023-03-12T16:03:19.649Z,0.60
2023-03-12T16:05:48.803Z,0.60
2023-03-12T16:08:22.674Z,0.40
2023-03-12T16:10:50.425Z,0.30
2023-03-12T16:13:20.187Z,0.63
2023-03-12T16:15:48.073Z,0.40
2023-03-12T16:18:20.781Z,1.23
2023-03-12T16:20:49.427Z,0.90
2023-03-12T16:23:16.859Z,0.30
2023-03-12T16:25:45.879Z,0.30
2023-03-12T16:28:15.879Z,0.77
2023-03-12T16:30:43.159Z,0.47
2023-03-12T16:33:14.975Z,1.40
2023-03-12T16:35:41.990Z,1.13
2023-03-12T16:38:08.983Z,0.60
2023-03-12T16:40:39.106Z,1.17
2023-03-12T16:43:11.192Z,0.80
2023-03-12T16:45:42.205Z,0.50
2023-03-12T16:48:17.532Z,1.73
2023-03-12T16:50:50.510Z,0.60
2023-03-12T16:53:18.191Z,1.03
2023-03-12T16:55:59.967Z,1.20
2023-03-12T16:58:27.660Z,0.97
2023-03-12T17:00:55.797Z,1.10
2023-03-12T17:03:35.798Z,0.80
2023-03-12T17:06:04.136Z,0.87
2023-03-12T17:08:30.940Z,0.60
2023-03-12T17:10:57.953Z,0.43
2023-03-12T17:13:27.319Z,0.53
2023-03-12T17:15:55.567Z,0.73
2023-03-12T17:18:22.859Z,0.73
2023-03-12T17:20:51.742Z,0.80
2023-03-12T17:23:18.910Z,0.63
2023-03-12T17:25:46.210Z,0.30
2023-03-12T17:28:14.340Z,0.70
2023-03-12T17:30:41.260Z,0.63
2023-03-12T17:33:16.581Z,0.50
2023-03-12T17:35:44.254Z,0.30
2023-03-12T17:38:12.014Z,0.40
2023-03-12T17:40:43.352Z,0.60
2023-03-12T17:43:10.417Z,0.53
2023-03-12T17:45:37.298Z,0.70
2023-03-12T17:48:04.650Z,0.30
2023-03-12T17:50:31.763Z,0.73
2023-03-12T17:52:58.582Z,0.47
2023-03-12T17:55:25.396Z,0.53
2023-03-12T17:57:52.235Z,1.20
2023-03-12T18:00:21.944Z,0.77
2023-03-12T18:02:49.315Z,0.93
2023-03-12T18:05:16.617Z,3.33
2023-03-12T18:07:43.620Z,3.97
2023-03-12T18:10:11.288Z,3.53
2023-03-12T18:12:39.031Z,2.40
2023-03-12T18:15:07.907Z,2.57
2023-03-12T18:17:34.968Z,4.33
2023-03-12T18:20:06.731Z,5.57
2023-03-12T18:22:33.582Z,4.47
2023-03-12T18:25:00.455Z,3.40
2023-03-12T18:27:27.297Z,1.27
2023-03-12T18:29:54.169Z,1.47
2023-03-12T18:32:21.035Z,0.80
2023-03-12T18:34:48.163Z,1.53
2023-03-12T18:37:15.077Z,1.30
2023-03-12T18:39:41.875Z,0.80
2023-03-12T18:42:08.728Z,0.70
2023-03-12T18:44:35.540Z,1.37
2023-03-12T18:47:02.418Z,1.90
2023-03-12T18:49:29.351Z,2.00
2023-03-12T18:51:56.197Z,1.90
2023-03-12T18:54:24.735Z,2.03
2023-03-12T18:56:51.809Z,2.27
2023-03-12T18:59:18.699Z,0.87
2023-03-12T19:01:45.636Z,1.53
2023-03-12T19:04:17.432Z,0.83
2023-03-12T19:06:51.132Z,0.50
2023-03-12T19:09:19.020Z,1.17
2023-03-12T19:11:49.527Z,0.40
2023-03-12T19:14:16.708Z,1.67
2023-03-12T19:16:43.805Z,0.90
2023-03-12T19:19:10.745Z,0.70
2023-03-12T19:21:37.632Z,1.37
2023-03-12T19:24:04.739Z,0.80
2023-03-12T19:26:31.720Z,0.70
2023-03-12T19:28:58.578Z,1.57
2023-03-12T19:31:25.605Z,0.97
2023-03-12T19:33:52.720Z,0.73
2023-03-12T19:36:19.717Z,0.53
2023-03-12T19:38:46.716Z,1.47
2023-03-12T19:41:13.652Z,0.90
2023-03-12T19:43:41.199Z,0.67
2023-03-12T19:46:08.276Z,1.73
2023-03-12T19:48:35.211Z,2.50
2023-03-12T19:51:06.834Z,1.53
2023-03-12T19:53:33.816Z,3.60
2023-03-12T19:56:00.851Z,7.27
2023-03-12T19:58:28.604Z,4.83
2023-03-12T20:00:58.949Z,3.20
2023-03-12T20:03:26.494Z,2.67
2023-03-12T20:05:53.580Z,1.83
2023-03-12T20:08:21.035Z,2.07
2023-03-12T20:10:48.594Z,1.07
2023-03-12T20:13:17.925Z,1.33
2023-03-12T20:15:48.627Z,1.37
2023-03-12T20:18:16.143Z,1.37
2023-03-12T20:20:43.198Z,1.67
2023-03-12T20:23:10.104Z,1.07
2023-03-12T20:25:41.129Z,2.10
2023-03-12T20:28:10.875Z,3.77
2023-03-12T20:30:41.406Z,1.97
2023-03-12T20:33:08.682Z,2.27
2023-03-12T20:35:36.391Z,2.17
2023-03-12T20:38:04.134Z,2.77
2023-03-12T20:40:31.129Z,2.60
2023-03-12T20:42:57.956Z,1.20
2023-03-12T20:45:24.823Z,2.80
2023-03-12T20:47:53.913Z,1.60
2023-03-12T20:50:20.761Z,2.10
2023-03-12T20:52:47.537Z,2.50
2023-03-12T20:55:14.399Z,2.17
2023-03-12T20:57:41.353Z,2.70
2023-03-12T21:00:08.909Z,2.17
2023-03-12T21:02:35.798Z,2.93
2023-03-12T21:05:03.659Z,3.47
2023-03-12T21:07:30.573Z,2.47
2023-03-12T21:09:57.794Z,2.37
2023-03-12T21:12:24.609Z,3.50
2023-03-12T21:14:51.444Z,3.47
2023-03-12T21:17:18.372Z,3.33
2023-03-12T21:19:46.504Z,2.93
2023-03-12T21:22:13.483Z,3.47
2023-03-12T21:24:40.405Z,1.83
2023-03-12T21:27:11.303Z,2.73
2023-03-12T21:29:38.331Z,3.83
2023-03-12T21:32:05.384Z,2.80
2023-03-12T21:34:32.297Z,2.47
2023-03-12T21:36:59.165Z,1.43
2023-03-12T21:39:27.132Z,2.10
2023-03-12T21:41:54.011Z,3.13
2023-03-12T21:44:20.824Z,4.27
2023-03-12T21:46:47.709Z,2.80
2023-03-12T21:49:17.945Z,2.43
2023-03-12T21:51:45.610Z,2.27
2023-03-12T21:54:12.545Z,2.93
2023-03-12T21:56:41.737Z,3.73
2023-03-12T21:59:08.704Z,2.40
2023-03-12T22:01:35.519Z,2.23
2023-03-12T22:04:05.205Z,2.47
2023-03-12T22:06:32.368Z,2.00
2023-03-12T22:08:59.324Z,4.07
2023-03-12T22:11:26.120Z,2.13
2023-03-12T22:13:53.061Z,2.40
2023-03-12T22:16:20.056Z,2.70
2023-03-12T22:18:47.073Z,1.40
2023-03-12T22:21:16.742Z,2.33
2023-03-12T22:23:43.844Z,2.37
2023-03-12T22:26:10.766Z,2.00
2023-03-12T22:28:37.572Z,2.70
2023-03-12T22:31:07.171Z,2.43
2023-03-12T22:33:38.065Z,3.33
2023-03-12T22:36:07.324Z,2.80
2023-03-12T22:38:36.621Z,2.20
2023-03-12T22:41:17.869Z,1.87
2023-03-12T22:43:45.807Z,1.33
2023-03-12T22:46:12.799Z,1.47
2023-03-12T22:48:40.634Z,1.10
2023-03-12T22:51:07.716Z,1.67
2023-03-12T22:53:35.844Z,1.37
2023-03-12T22:56:05.887Z,2.60
2023-03-12T22:58:33.318Z,1.20
2023-03-12T23:01:20.892Z,1.63
2023-03-12T23:03:48.516Z,1.73
2023-03-12T23:06:21.357Z,1.37
2023-03-12T23:08:48.799Z,1.17
2023-03-12T23:11:16.967Z,2.13
2023-03-12T23:13:45.531Z,2.87
2023-03-12T23:16:15.277Z,2.60
2023-03-12T23:18:43.082Z,2.00
2023-03-12T23:21:13.392Z,2.17
2023-03-12T23:23:42.239Z,2.17
2023-03-12T23:26:13.121Z,3.00
2023-03-12T23:28:40.616Z,4.03
2023-03-12T23:31:08.605Z,3.03
2023-03-12T23:33:35.924Z,3.93
2023-03-12T23:36:07.005Z,2.43
2023-03-12T23:38:37.392Z,1.73
2023-03-12T23:41:17.374Z,0.97
2023-03-12T23:43:44.920Z,2.70
2023-03-12T23:46:13.066Z,1.53
2023-03-12T23:48:41.261Z,1.37
2023-03-12T23:51:14.492Z,1.53
2023-03-12T23:53:43.254Z,1.47
2023-03-12T23:56:13.325Z,1.10
2023-03-12T23:58:40.436Z,1.33
